Terminal Aerodrome Forecast
Issued by NWS Cleveland, OH

Home | Current Version | Previous Version | Text Only | Print | Product List | Glossary Off
Versions: 1 2 3 4 5 6 7 8 9 10 11 12 13 14 15 16 17 18

000
FTUS41 KCLE 241120
TAFERI
TAF
KERI 241120Z 2412/2512 VRB03KT P6SM SCT250
     FM241600 18010KT P6SM SCT050 BKN250
     FM242000 20010KT P6SM BKN050 BKN250
     FM250200 20010KT P6SM VCTS BKN050CB OVC120
     FM250800 22008KT P6SM -SHRA OVC050=

USA.gov is the U.S. government's official web portal to all federal, state and local government web resources and services.